Time;durP1;ratioP1;P1;durP2;ratioP2;P2;SDS_P1;SDS_P2;PMS_P1;PMS_P2;Temp;Humidity;BMP_temperature;BMP_pressure;BME280_temperature;BME280_humidity;BME280_pressure;Samples;Min_cycle;Max_cycle;Signal;HPM_P1;HPM_P2
2024/01/14 09:50:53;;;;;;;7.78;4.90;;;;;;;;;;4880239;29;20061;-95
2024/01/14 10:58:36;;;;;;;4.33;3.77;;;;;;;;;;4917330;29;20052;-96
2024/01/14 11:01:07;;;;;;;4.78;4.32;;;;;;;;;;4916888;29;20145;-92
2024/01/14 11:03:45;;;;;;;4.72;3.65;;;;;;;;;;4921673;29;20051;-91
2024/01/14 11:09:01;;;;;;;5.72;3.83;;;;;;;;;;5066263;23;20068;-92
2024/01/14 11:11:51;;;;;;;5.72;4.10;;;;;;;;;;4929558;23;20114;-92
2024/01/14 11:15:24;;;;;;;3.72;3.15;;;;;;;;;;4936139;29;20143;-93
2024/01/14 11:18:16;;;;;;;8.30;6.03;;;;;;;;;;4932851;29;20036;-92
2024/01/14 11:21:01;;;;;;;6.68;5.20;;;;;;;;;;4966696;23;20083;-94
2024/01/14 11:23:30;;;;;;;7.82;6.28;;;;;;;;;;4926985;29;20047;-89
2024/01/14 11:25:55;;;;;;;7.45;5.90;;;;;;;;;;4930960;29;20047;-96
2024/01/14 11:28:21;;;;;;;6.82;4.88;;;;;;;;;;4927263;29;20032;-95
2024/01/14 11:30:46;;;;;;;7.80;5.68;;;;;;;;;;4932056;29;20036;-96
2024/01/14 11:33:42;;;;;;;6.68;5.43;;;;;;;;;;4933706;29;20052;-96
2024/01/14 11:36:09;;;;;;;6.97;5.22;;;;;;;;;;4929875;29;20079;-95
2024/01/14 11:38:43;;;;;;;11.30;6.75;;;;;;;;;;4924713;29;20035;-95
2024/01/14 11:41:32;;;;;;;9.82;6.22;;;;;;;;;;4920425;29;20483;-96
2024/01/14 11:44:11;;;;;;;9.70;6.07;;;;;;;;;;4922414;29;20036;-96
2024/01/14 11:46:49;;;;;;;7.55;5.65;;;;;;;;;;4931931;29;20059;-96
2024/01/14 11:49:19;;;;;;;7.57;4.97;;;;;;;;;;4913159;29;20032;-94
2024/01/14 11:51:51;;;;;;;7.05;4.95;;;;;;;;;;4930717;29;20028;-95
2024/01/14 11:54:27;;;;;;;6.38;4.70;;;;;;;;;;4957414;23;20344;-95
2024/01/14 11:56:57;;;;;;;8.15;5.03;;;;;;;;;;4925274;29;20116;-90
2024/01/14 11:59:23;;;;;;;6.70;5.18;;;;;;;;;;4906344;29;20032;-96
2024/01/14 12:01:49;;;;;;;7.68;4.85;;;;;;;;;;4909697;29;20039;-91
2024/01/14 12:04:25;;;;;;;6.25;4.93;;;;;;;;;;4911566;29;20029;-95
2024/01/14 12:06:50;;;;;;;5.10;4.10;;;;;;;;;;4907876;29;20044;-95
2024/01/14 12:09:17;;;;;;;4.95;4.03;;;;;;;;;;4912076;29;20039;-95
2024/01/14 12:11:43;;;;;;;5.20;4.13;;;;;;;;;;4909712;29;20033;-92
2024/01/14 12:14:10;;;;;;;4.78;3.67;;;;;;;;;;4908881;29;20061;-90
2024/01/14 12:16:37;;;;;;;4.43;4.03;;;;;;;;;;4906286;29;20025;-92
2024/01/14 12:19:20;;;;;;;4.80;3.97;;;;;;;;;;4905755;29;20024;-94
2024/01/14 12:21:59;;;;;;;;;;;;;;;;;;;;;
2024/01/14 12:24:34;;;;;;;4.13;3.60;;;;;;;;;;4902436;29;20033;-92
2024/01/14 12:27:00;;;;;;;4.10;3.47;;;;;;;;;;4900918;29;20041;-92
2024/01/14 12:29:30;;;;;;;5.90;4.28;;;;;;;;;;4900782;29;20024;-92
2024/01/14 12:32:16;;;;;;;5.32;3.75;;;;;;;;;;4899260;29;20044;-91
2024/01/14 12:34:49;;;;;;;7.45;5.28;;;;;;;;;;4902504;29;20554;-93
2024/01/14 12:37:15;;;;;;;7.90;5.55;;;;;;;;;;4906117;29;20028;-93
2024/01/14 12:39:41;;;;;;;7.93;5.05;;;;;;;;;;4909552;29;20033;-93
2024/01/14 12:42:06;;;;;;;7.45;5.00;;;;;;;;;;4904581;29;20041;-93
2024/01/14 12:44:39;;;;;;;6.10;5.13;;;;;;;;;;4901424;29;20059;-91
2024/01/14 12:47:08;;;;;;;6.30;4.65;;;;;;;;;;4901145;29;20017;-93
2024/01/14 12:49:34;;;;;;;8.37;6.43;;;;;;;;;;4900937;29;20033;-92
2024/01/14 12:52:02;;;;;;;10.43;7.35;;;;;;;;;;4904094;29;20035;-92
2024/01/14 12:54:31;;;;;;;11.77;8.07;;;;;;;;;;4901737;29;20032;-92
2024/01/14 12:57:04;;;;;;;8.85;6.72;;;;;;;;;;4901525;29;20035;-92
2024/01/14 12:59:32;;;;;;;6.95;5.68;;;;;;;;;;4888389;29;20037;-92
2024/01/14 13:01:58;;;;;;;7.15;5.18;;;;;;;;;;4901602;29;20028;-92
2024/01/14 13:04:27;;;;;;;7.70;4.80;;;;;;;;;;4901527;29;20025;-92
2024/01/14 13:06:53;;;;;;;8.32;5.22;;;;;;;;;;4901743;29;20129;-93
2024/01/14 13:09:20;;;;;;;7.90;6.00;;;;;;;;;;4902694;29;20063;-92
2024/01/14 13:11:49;;;;;;;8.90;6.28;;;;;;;;;;4902157;29;20059;-91
2024/01/14 13:14:18;;;;;;;7.18;5.95;;;;;;;;;;4902052;29;20028;-92
2024/01/14 13:16:57;;;;;;;9.02;6.72;;;;;;;;;;4900975;29;20057;-92
2024/01/14 13:19:25;;;;;;;18.92;10.68;;;;;;;;;;4903323;29;20064;-93
2024/01/14 13:21:54;;;;;;;14.35;9.57;;;;;;;;;;4903546;29;20036;-91
2024/01/14 13:24:22;;;;;;;25.92;16.58;;;;;;;;;;4904467;29;20025;-93
2024/01/14 13:26:48;;;;;;;32.25;19.95;;;;;;;;;;4904755;29;20020;-93
2024/01/14 13:29:14;;;;;;;29.92;19.38;;;;;;;;;;4901542;29;20030;-92
2024/01/14 13:31:41;;;;;;;33.42;20.02;;;;;;;;;;4900160;29;20119;-91
2024/01/14 13:34:07;;;;;;;33.60;21.13;;;;;;;;;;4899062;29;20045;-92
2024/01/14 13:36:32;;;;;;;35.47;22.42;;;;;;;;;;4900019;29;20119;-91
2024/01/14 13:39:01;;;;;;;31.58;22.08;;;;;;;;;;4899247;29;20060;-91
2024/01/14 13:41:26;;;;;;;33.88;21.30;;;;;;;;;;4899065;29;20047;-92
2024/01/14 13:43:52;;;;;;;33.13;21.63;;;;;;;;;;4899191;29;20028;-91
2024/01/14 13:46:17;;;;;;;32.25;20.67;;;;;;;;;;4898541;29;20024;-92
2024/01/14 13:48:43;;;;;;;34.28;21.40;;;;;;;;;;4899130;29;20032;-92
2024/01/14 13:51:08;;;;;;;34.70;21.70;;;;;;;;;;4898890;29;20056;-92
2024/01/14 13:53:34;;;;;;;36.88;21.63;;;;;;;;;;4898747;29;20028;-91
2024/01/14 13:55:59;;;;;;;33.13;20.27;;;;;;;;;;4898951;29;20052;-90
2024/01/14 13:58:25;;;;;;;32.05;20.15;;;;;;;;;;4898669;29;20028;-92
2024/01/14 14:00:50;;;;;;;35.63;22.27;;;;;;;;;;4899107;29;20043;-92
2024/01/14 14:03:16;;;;;;;32.58;20.48;;;;;;;;;;4898661;29;20028;-93
2024/01/14 14:05:46;;;;;;;36.35;20.25;;;;;;;;;;4907283;29;20487;-94
2024/01/14 14:08:37;;;;;;;32.58;19.90;;;;;;;;;;4918374;29;20036;-94
2024/01/14 14:11:05;;;;;;;38.55;21.23;;;;;;;;;;4886648;29;20051;-94
2024/01/14 14:13:37;;;;;;;37.92;22.20;;;;;;;;;;4898775;29;20032;-90
2024/01/14 14:16:17;;;;;;;31.75;20.55;;;;;;;;;;4898108;29;20096;-91
2024/01/14 14:18:45;;;;;;;35.45;21.85;;;;;;;;;;4898289;29;20035;-92
2024/01/14 14:21:11;;;;;;;32.83;21.27;;;;;;;;;;4898675;29;20503;-91
2024/01/14 14:23:36;;;;;;;32.38;20.33;;;;;;;;;;4898133;29;20028;-89
2024/01/14 14:26:24;;;;;;;31.98;20.60;;;;;;;;;;4898717;29;20029;-91
2024/01/14 14:29:09;;;;;;;34.78;20.83;;;;;;;;;;4880705;29;20028;-93
2024/01/14 14:31:37;;;;;;;34.58;21.58;;;;;;;;;;4880624;29;20052;-93
2024/01/14 14:34:24;;;;;;;34.10;20.27;;;;;;;;;;4880351;29;20112;-93
2024/01/14 14:36:49;;;;;;;36.67;21.30;;;;;;;;;;4881406;29;20053;-93
2024/01/14 14:39:28;;;;;;;;;;;;;;;;;;;;;
2024/01/14 14:42:18;;;;;;;32.65;19.48;;;;;;;;;;4882076;29;20039;-93
2024/01/14 14:44:51;;;;;;;;;;;;;;;;;;4893230;29;20040;-90
2024/01/14 14:47:19;;;;;;;29.75;19.30;;;;;;;;;;4898757;29;19915;-93
2024/01/14 14:49:45;;;;;;;30.58;19.48;;;;;;;;;;4899128;29;20037;-93
2024/01/14 14:52:10;;;;;;;32.95;20.42;;;;;;;;;;4898453;29;20047;-92
2024/01/14 14:54:39;;;;;;;29.15;18.25;;;;;;;;;;4898324;29;20048;-92
2024/01/14 14:57:04;;;;;;;30.15;18.65;;;;;;;;;;4899266;29;20060;-92
2024/01/14 14:59:30;;;;;;;31.08;19.55;;;;;;;;;;4909619;29;20052;-94
2024/01/14 15:01:56;;;;;;;32.42;20.40;;;;;;;;;;4901790;29;20036;-92
2024/01/14 15:04:21;;;;;;;34.10;21.58;;;;;;;;;;4903441;29;20084;-94
2024/01/14 15:06:47;;;;;;;35.30;21.60;;;;;;;;;;4902419;29;20024;-91
2024/01/14 15:09:14;;;;;;;35.28;21.17;;;;;;;;;;4902152;29;20121;-92
2024/01/14 15:11:45;;;;;;;32.83;21.08;;;;;;;;;;4884246;29;20040;-94
2024/01/14 15:14:11;;;;;;;32.20;20.05;;;;;;;;;;4899223;29;20029;-93
2024/01/14 15:16:41;;;;;;;33.92;21.73;;;;;;;;;;4902563;29;20039;-92
2024/01/14 15:19:10;;;;;;;33.42;21.50;;;;;;;;;;4901936;29;20033;-92
2024/01/14 15:21:36;;;;;;;33.83;21.52;;;;;;;;;;4902119;29;20160;-92
2024/01/14 15:24:02;;;;;;;34.58;20.88;;;;;;;;;;4902405;29;20025;-92
2024/01/14 15:26:30;;;;;;;33.92;20.00;;;;;;;;;;4902040;29;20036;-93
2024/01/14 15:28:56;;;;;;;33.75;21.27;;;;;;;;;;4901776;29;20033;-93
2024/01/14 15:31:24;;;;;;;33.38;20.50;;;;;;;;;;4902143;29;20467;-93
2024/01/14 15:33:50;;;;;;;33.75;20.75;;;;;;;;;;4902396;29;20029;-92
2024/01/14 15:36:16;;;;;;;37.40;22.30;;;;;;;;;;4901904;29;20040;-93
2024/01/14 15:38:42;;;;;;;37.35;21.13;;;;;;;;;;4901959;29;20476;-93
2024/01/14 15:41:08;;;;;;;33.08;20.15;;;;;;;;;;4902069;29;20029;-94
2024/01/14 15:43:37;;;;;;;35.45;20.67;;;;;;;;;;4901762;29;20119;-93
2024/01/14 15:46:03;;;;;;;30.97;19.27;;;;;;;;;;4902474;29;20391;-92
2024/01/14 15:48:39;;;;;;;32.08;19.67;;;;;;;;;;4901707;29;20506;-94
2024/01/14 15:51:06;;;;;;;29.20;20.17;;;;;;;;;;4901445;29;20024;-95
2024/01/14 15:53:33;;;;;;;31.02;18.88;;;;;;;;;;4909508;29;20059;-92
2024/01/14 15:56:04;;;;;;;31.00;19.67;;;;;;;;;;4909035;29;20072;-95
2024/01/14 15:58:43;;;;;;;33.10;19.83;;;;;;;;;;4903747;29;20043;-91
2024/01/14 16:01:11;;;;;;;39.22;22.48;;;;;;;;;;4908742;29;20487;-94
2024/01/14 16:03:38;;;;;;;36.63;20.90;;;;;;;;;;4913855;29;20028;-92
2024/01/14 16:06:13;;;;;;;33.10;20.67;;;;;;;;;;4915944;29;20036;-90
2024/01/14 16:08:47;;;;;;;34.80;20.30;;;;;;;;;;4905069;29;20040;-90
2024/01/14 16:11:15;;;;;;;35.25;22.20;;;;;;;;;;4909137;29;20379;-94
2024/01/14 16:13:41;;;;;;;31.35;19.30;;;;;;;;;;4909031;29;20032;-93
2024/01/14 16:16:08;;;;;;;37.22;23.33;;;;;;;;;;4908149;29;20116;-88
2024/01/14 16:18:34;;;;;;;34.20;21.73;;;;;;;;;;4909428;29;20028;-91
2024/01/14 16:21:00;;;;;;;35.20;22.80;;;;;;;;;;4903537;29;20032;-89
2024/01/14 16:23:32;;;;;;;30.48;19.63;;;;;;;;;;4910125;29;20032;-86
2024/01/14 16:26:15;;;;;;;30.23;19.13;;;;;;;;;;4910281;29;20028;-91
2024/01/14 16:28:45;;;;;;;40.17;23.55;;;;;;;;;;4910614;29;20126;-88
2024/01/14 16:31:19;;;;;;;30.65;19.40;;;;;;;;;;4906418;29;20059;-93
2024/01/14 16:33:48;;;;;;;29.60;16.85;;;;;;;;;;4893325;29;20045;-88
2024/01/14 16:36:18;;;;;;;33.47;20.33;;;;;;;;;;4914902;29;20072;-88
2024/01/14 16:38:46;;;;;;;27.83;17.67;;;;;;;;;;4920182;29;20032;-90
2024/01/14 16:41:23;;;;;;;31.27;19.07;;;;;;;;;;4901325;29;20047;-92
2024/01/14 16:43:53;;;;;;;31.08;19.20;;;;;;;;;;4908307;29;20033;-91
2024/01/14 16:46:42;;;;;;;32.92;21.50;;;;;;;;;;4893870;29;20029;-90
2024/01/14 16:49:10;;;;;;;30.52;18.92;;;;;;;;;;4908968;29;20039;-90
2024/01/14 16:51:41;;;;;;;34.17;21.35;;;;;;;;;;4915579;29;20076;-90
2024/01/14 16:54:07;;;;;;;33.83;20.60;;;;;;;;;;4912428;29;20035;-90
2024/01/14 16:56:34;;;;;;;26.23;16.83;;;;;;;;;;4916945;29;20049;-91
2024/01/14 16:59:11;;;;;;;32.67;18.70;;;;;;;;;;4914958;29;20032;-89
2024/01/14 17:01:40;;;;;;;33.13;19.17;;;;;;;;;;4908212;29;20072;-90
2024/01/14 17:04:13;;;;;;;29.35;18.17;;;;;;;;;;4914117;29;20123;-90
2024/01/14 17:06:41;;;;;;;29.20;17.40;;;;;;;;;;4886440;23;20088;-90
2024/01/14 17:09:11;;;;;;;29.33;18.02;;;;;;;;;;4929587;29;20036;-89
2024/01/14 17:11:39;;;;;;;;;;;;;;;;;;4932368;29;20043;-91
2024/01/14 17:14:06;;;;;;;27.60;17.60;;;;;;;;;;4926682;29;19974;-92
2024/01/14 17:17:00;;;;;;;28.20;17.20;;;;;;;;;;4931930;29;20035;-91
2024/01/14 18:29:03;;;;;;;34.75;20.42;;;;;;;;;;4953233;29;20072;-91
2024/01/14 18:42:17;;;;;;;36.65;21.25;;;;;;;;;;5720796;23;20044;-91
2024/01/14 18:44:59;;;;;;;32.40;20.90;;;;;;;;;;4937835;29;20052;-90
2024/01/14 18:47:25;;;;;;;35.50;22.13;;;;;;;;;;4932383;29;20044;-92
2024/01/14 18:49:59;;;;;;;35.53;21.30;;;;;;;;;;4934592;29;20028;-89
2024/01/14 18:52:25;;;;;;;34.58;21.23;;;;;;;;;;4942961;23;20060;-91
2024/01/14 18:54:51;;;;;;;35.72;21.33;;;;;;;;;;4910023;29;20053;-91
2024/01/14 18:57:17;;;;;;;35.88;21.33;;;;;;;;;;4896980;29;20056;-93
2024/01/14 18:59:42;;;;;;;36.40;22.50;;;;;;;;;;4885597;29;20037;-91
2024/01/14 19:02:11;;;;;;;62.40;32.97;;;;;;;;;;4884286;29;20063;-95
2024/01/14 19:04:36;;;;;;;35.05;20.45;;;;;;;;;;4882327;29;20045;-93
2024/01/14 19:07:06;;;;;;;37.15;24.70;;;;;;;;;;4890831;29;20053;-92
2024/01/14 19:09:32;;;;;;;39.60;24.63;;;;;;;;;;4884863;29;20048;-94
2024/01/14 19:11:58;;;;;;;41.15;21.98;;;;;;;;;;4883802;29;20129;-91
2024/01/14 19:14:24;;;;;;;40.45;23.30;;;;;;;;;;4891803;29;20033;-93
2024/01/14 19:16:50;;;;;;;45.67;26.50;;;;;;;;;;4898258;29;20040;-93
2024/01/14 19:19:15;;;;;;;39.97;23.17;;;;;;;;;;4881238;29;20029;-93
2024/01/14 19:21:47;;;;;;;48.28;27.48;;;;;;;;;;4901732;29;20037;-94
2024/01/14 19:24:13;;;;;;;52.97;29.75;;;;;;;;;;4897382;29;20058;-95
2024/01/14 19:26:48;;;;;;;60.20;34.22;;;;;;;;;;4890543;29;20021;-93
2024/01/14 19:29:15;;;;;;;51.97;31.38;;;;;;;;;;4882634;29;20030;-96
2024/01/14 19:31:43;;;;;;;56.17;33.10;;;;;;;;;;4887380;29;20033;-95
2024/01/14 19:34:09;;;;;;;54.70;32.53;;;;;;;;;;4887227;29;20036;-95
2024/01/14 19:36:38;;;;;;;53.15;31.40;;;;;;;;;;4873680;29;20029;-95
2024/01/14 19:39:03;;;;;;;54.40;32.80;;;;;;;;;;4873552;29;20030;-95
2024/01/14 19:41:34;;;;;;;56.00;32.95;;;;;;;;;;4883387;29;20548;-95
2024/01/14 19:44:30;;;;;;;56.13;32.47;;;;;;;;;;4877013;29;20029;-95
2024/01/14 19:46:55;;;;;;;54.50;31.15;;;;;;;;;;4910920;29;20483;-94
2024/01/14 19:49:21;;;;;;;54.80;33.38;;;;;;;;;;4886263;29;20033;-95
2024/01/14 19:51:47;;;;;;;54.33;33.35;;;;;;;;;;4883853;29;20024;-95
2024/01/14 19:54:18;;;;;;;53.05;32.03;;;;;;;;;;4875093;29;20030;-94
2024/01/14 19:56:46;;;;;;;51.35;31.10;;;;;;;;;;4884770;29;20025;-94
2024/01/14 19:59:12;;;;;;;53.88;32.72;;;;;;;;;;4883545;29;20144;-95
2024/01/14 20:01:38;;;;;;;56.65;33.70;;;;;;;;;;4879028;29;20555;-94
2024/01/14 20:04:05;;;;;;;53.67;32.90;;;;;;;;;;4880033;29;20037;-94
2024/01/14 20:06:30;;;;;;;51.55;32.00;;;;;;;;;;4880827;29;20062;-95
2024/01/14 20:08:58;;;;;;;51.70;30.83;;;;;;;;;;4878529;29;20040;-93
2024/01/14 20:11:24;;;;;;;51.50;29.58;;;;;;;;;;4886518;29;20025;-95
2024/01/14 20:13:50;;;;;;;52.17;30.40;;;;;;;;;;4884908;29;20025;-94
2024/01/14 20:16:15;;;;;;;54.45;30.85;;;;;;;;;;4885462;29;20040;-92
2024/01/14 20:18:45;;;;;;;47.42;30.33;;;;;;;;;;4886390;29;20062;-94
2024/01/14 20:21:10;;;;;;;49.92;30.40;;;;;;;;;;4885259;29;20033;-92
2024/01/14 20:23:39;;;;;;;49.08;28.95;;;;;;;;;;4887203;29;20031;-95
2024/01/14 20:26:05;;;;;;;49.03;29.80;;;;;;;;;;4885241;29;20025;-93
2024/01/14 20:28:31;;;;;;;53.05;29.80;;;;;;;;;;4889664;29;20159;-94
2024/01/14 20:30:58;;;;;;;49.13;29.15;;;;;;;;;;4886331;29;20080;-94
2024/01/14 20:33:32;;;;;;;44.35;27.95;;;;;;;;;;4890171;29;20530;-94
2024/01/14 20:36:03;;;;;;;55.50;32.50;;;;;;;;;;4898741;29;20072;-92
2024/01/14 20:38:41;;;;;;;49.50;29.58;;;;;;;;;;4886180;29;20029;-96
2024/01/14 20:41:13;;;;;;;50.08;29.08;;;;;;;;;;4889751;29;20029;-95
2024/01/14 20:43:40;;;;;;;45.35;28.08;;;;;;;;;;4888269;29;20116;-93
2024/01/14 20:46:06;;;;;;;49.90;30.40;;;;;;;;;;4887470;29;20044;-96
2024/01/14 20:48:31;;;;;;;46.97;30.08;;;;;;;;;;4882234;29;20053;-90
2024/01/14 20:50:57;;;;;;;50.30;30.73;;;;;;;;;;4876826;29;20070;-93
2024/01/14 20:53:23;;;;;;;50.08;29.70;;;;;;;;;;4886958;29;20076;-96
2024/01/14 20:55:57;;;;;;;48.47;30.73;;;;;;;;;;4893763;29;20029;-93
2024/01/14 20:58:25;;;;;;;50.60;29.05;;;;;;;;;;4877080;29;20044;-93
2024/01/14 21:01:12;;;;;;;48.35;28.70;;;;;;;;;;4878533;29;20029;-96
2024/01/14 21:03:47;;;;;;;49.78;29.73;;;;;;;;;;4873198;29;20036;-96
2024/01/14 21:06:13;;;;;;;48.63;31.58;;;;;;;;;;4877788;29;20496;-96
2024/01/14 21:08:43;;;;;;;50.67;30.83;;;;;;;;;;4883748;29;20029;-95
2024/01/14 21:11:09;;;;;;;49.70;30.20;;;;;;;;;;4875851;29;20121;-94
2024/01/14 21:13:35;;;;;;;49.33;30.13;;;;;;;;;;4885343;29;20033;-94
2024/01/14 21:16:05;;;;;;;50.30;30.73;;;;;;;;;;4916411;29;20433;-94
2024/01/14 21:18:32;;;;;;;50.05;30.60;;;;;;;;;;4882666;29;20476;-95
2024/01/14 21:20:58;;;;;;;51.42;30.98;;;;;;;;;;4882760;29;20048;-96
2024/01/14 21:23:27;;;;;;;50.85;31.00;;;;;;;;;;4883822;29;20380;-95
2024/01/14 21:25:58;;;;;;;54.47;31.00;;;;;;;;;;4884166;29;20036;-95
2024/01/14 21:28:30;;;;;;;50.55;29.27;;;;;;;;;;4882609;29;20025;-96
2024/01/14 21:30:58;;;;;;;50.85;29.55;;;;;;;;;;4883314;29;20038;-95
2024/01/14 21:33:27;;;;;;;49.97;29.02;;;;;;;;;;4886171;29;20041;-95
2024/01/14 21:35:53;;;;;;;51.60;31.00;;;;;;;;;;4885658;29;20146;-96
2024/01/14 21:38:19;;;;;;;48.65;28.02;;;;;;;;;;4887688;29;20061;-95
2024/01/14 21:40:45;;;;;;;51.42;29.65;;;;;;;;;;4888960;29;20056;-96
2024/01/14 21:43:14;;;;;;;56.13;31.33;;;;;;;;;;4890487;29;20500;-96
2024/01/14 21:45:46;;;;;;;50.50;30.95;;;;;;;;;;4892754;29;20037;-95
2024/01/14 21:48:15;;;;;;;49.63;29.90;;;;;;;;;;4894132;29;20029;-95
2024/01/14 21:50:45;;;;;;;47.05;29.63;;;;;;;;;;4882067;29;20033;-96
2024/01/14 21:53:13;;;;;;;49.60;31.25;;;;;;;;;;4884578;29;20132;-94
2024/01/14 21:55:45;;;;;;;54.60;31.55;;;;;;;;;;4883912;29;20422;-93
2024/01/14 21:58:11;;;;;;;55.20;31.08;;;;;;;;;;4883468;29;20037;-94
2024/01/14 22:00:39;;;;;;;45.05;29.55;;;;;;;;;;4885109;29;20101;-96
2024/01/14 22:03:06;;;;;;;59.92;32.88;;;;;;;;;;4888779;29;20089;-96
2024/01/14 22:05:31;;;;;;;56.75;32.50;;;;;;;;;;4892521;29;20025;-96
2024/01/14 22:07:57;;;;;;;49.08;29.25;;;;;;;;;;4891664;29;20084;-94
2024/01/14 22:10:26;;;;;;;58.25;31.52;;;;;;;;;;4882704;29;20050;-93
2024/01/14 22:12:52;;;;;;;46.42;28.70;;;;;;;;;;4882030;29;20119;-94
2024/01/14 22:15:18;;;;;;;58.80;32.53;;;;;;;;;;4887382;29;20077;-96
2024/01/14 22:17:44;;;;;;;66.47;35.35;;;;;;;;;;4888293;29;20123;-96
2024/01/14 22:20:16;;;;;;;58.92;34.00;;;;;;;;;;4888916;29;20025;-96
2024/01/14 22:22:44;;;;;;;50.38;28.10;;;;;;;;;;4889774;29;20044;-96
2024/01/14 22:25:10;;;;;;;50.67;30.13;;;;;;;;;;4884965;29;20096;-94
2024/01/14 22:27:39;;;;;;;48.03;28.80;;;;;;;;;;4885426;29;20113;-96
2024/01/14 22:30:08;;;;;;;50.67;29.60;;;;;;;;;;4885635;29;20033;-96
2024/01/14 22:32:34;;;;;;;49.10;28.30;;;;;;;;;;4884433;29;20021;-95
2024/01/14 22:35:00;;;;;;;49.25;28.83;;;;;;;;;;4887869;29;20029;-96
2024/01/14 22:37:26;;;;;;;47.67;27.52;;;;;;;;;;4882908;29;20021;-96
2024/01/14 22:39:53;;;;;;;51.35;30.85;;;;;;;;;;4885330;29;20036;-96
2024/01/14 22:42:27;;;;;;;57.15;31.55;;;;;;;;;;4882214;29;20057;-96
2024/01/14 22:44:56;;;;;;;49.15;29.77;;;;;;;;;;4883009;29;20104;-96
2024/01/14 22:47:21;;;;;;;51.92;31.15;;;;;;;;;;4883373;29;20069;-96
2024/01/14 22:49:47;;;;;;;49.00;27.85;;;;;;;;;;4884325;29;20029;-95
2024/01/14 22:52:13;;;;;;;52.90;30.77;;;;;;;;;;4883852;29;20435;-95
2024/01/14 22:54:39;;;;;;;52.00;30.48;;;;;;;;;;4885195;29;20112;-96
2024/01/14 22:57:08;;;;;;;50.63;30.15;;;;;;;;;;4887260;29;20469;-96
